Time;durP1;ratioP1;P1;durP2;ratioP2;P2;SDS_P1;SDS_P2;PMS_P1;PMS_P2;Temp;Humidity;BMP_temperature;BMP_pressure;BME280_temperature;BME280_humidity;BME280_pressure;Samples;Min_cycle;Max_cycle;Signal;HPM_P1;HPM_P2
2020/12/15 15:46:46;;;;;;;9.45;5.75;;;21.10;57.30;;;;;;5060084;27;20429;-54
2020/12/15 15:49:32;;;;;;;11.73;4.80;;;21.20;58.00;;;;;;5039765;28;20053;-55
2020/12/15 15:51:58;;;;;;;10.35;6.72;;;21.30;57.30;;;;;;5038133;28;20493;-58
2020/12/15 15:54:24;;;;;;;13.38;7.93;;;21.30;55.90;;;;;;5038976;28;20396;-58
2020/12/15 15:56:50;;;;;;;9.48;7.45;;;21.30;55.00;;;;;;5066987;28;20036;-57
2020/12/15 15:59:16;;;;;;;7.38;5.38;;;21.20;55.70;;;;;;5041132;28;20115;-57
2020/12/15 16:01:42;;;;;;;11.43;4.95;;;21.20;57.20;;;;;;5041194;28;20127;-51
2020/12/15 16:04:07;;;;;;;9.50;5.13;;;21.30;57.20;;;;;;5038387;28;20041;-53
2020/12/15 16:06:33;;;;;;;5.60;4.40;;;21.30;57.00;;;;;;5038448;28;20056;-55
2020/12/15 16:08:59;;;;;;;9.88;5.30;;;21.20;56.70;;;;;;5036905;28;20049;-59
2020/12/15 16:11:52;;;;;;;8.18;5.68;;;21.30;56.30;;;;;;5035932;28;20391;-55
2020/12/15 16:14:18;;;;;;;13.60;6.13;;;21.20;55.80;;;;;;5039201;28;20319;-55
2020/12/15 16:16:46;;;;;;;8.27;5.25;;;21.20;56.00;;;;;;5020532;28;20163;-57
2020/12/15 16:19:12;;;;;;;5.50;4.05;;;21.20;56.30;;;;;;5038901;28;20072;-55
2020/12/15 16:21:39;;;;;;;6.68;4.05;;;21.20;56.70;;;;;;5039164;28;20048;-57
2020/12/15 16:24:24;;;;;;;8.52;5.03;;;21.20;56.40;;;;;;5039010;28;20424;-58
2020/12/15 16:26:53;;;;;;;9.73;5.13;;;21.30;56.30;;;;;;5022610;28;20061;-58
2020/12/15 16:29:19;;;;;;;8.23;5.50;;;21.30;56.40;;;;;;5034809;28;20048;-54
2020/12/15 16:31:54;;;;;;;8.75;6.30;;;21.30;56.30;;;;;;5036580;28;20045;-51
2020/12/15 16:34:20;;;;;;;8.32;5.55;;;21.30;56.40;;;;;;5034777;28;20541;-50
2020/12/15 16:36:50;;;;;;;14.48;5.68;;;21.30;56.20;;;;;;5036143;28;20044;-51
2020/12/15 16:39:16;;;;;;;13.57;10.30;;;21.30;55.90;;;;;;5028616;28;20139;-51
2020/12/15 16:41:41;;;;;;;13.52;7.25;;;21.40;54.10;;;;;;5035544;28;20572;-52
2020/12/15 16:44:07;;;;;;;12.80;6.05;;;21.30;55.40;;;;;;5031625;28;20033;-53
2020/12/15 16:46:53;;;;;;;11.55;6.07;;;21.30;55.70;;;;;;5032402;28;20052;-52
2020/12/15 16:49:19;;;;;;;12.50;7.30;;;21.30;55.70;;;;;;5034889;28;20041;-51
2020/12/15 16:51:45;;;;;;;11.23;7.35;;;21.30;55.20;;;;;;5036155;28;20520;-54
2020/12/15 16:54:12;;;;;;;15.25;8.80;;;21.30;55.70;;;;;;5036854;28;20037;-56
2020/12/15 16:56:38;;;;;;;8.63;6.63;;;21.30;55.10;;;;;;5031270;28;20048;-57
2020/12/15 16:59:05;;;;;;;9.98;7.32;;;21.20;55.60;;;;;;5021242;28;20042;-53
2020/12/15 17:01:31;;;;;;;10.82;8.73;;;21.20;55.70;;;;;;5019728;28;20041;-53
2020/12/15 17:03:57;;;;;;;6.70;5.95;;;21.20;55.70;;;;;;5017087;28;20037;-50
2020/12/15 17:06:22;;;;;;;9.77;6.70;;;21.20;56.00;;;;;;5018164;28;20052;-45
2020/12/15 17:09:08;;;;;;;14.63;11.55;;;21.20;55.90;;;;;;5017896;28;20079;-52
2020/12/15 17:11:34;;;;;;;10.00;7.57;;;21.20;54.70;;;;;;5021993;28;20052;-51
2020/12/15 17:14:19;;;;;;;8.45;6.68;;;21.10;55.90;;;;;;5021975;28;20053;-53
2020/12/15 17:16:46;;;;;;;9.63;6.68;;;21.20;56.20;;;;;;5021477;28;20042;-51
2020/12/15 17:19:12;;;;;;;8.57;6.25;;;21.20;56.00;;;;;;5004145;28;20061;-53
2020/12/15 17:21:37;;;;;;;10.75;6.78;;;21.30;56.00;;;;;;5022784;28;20579;-50
2020/12/15 17:24:03;;;;;;;9.32;6.75;;;21.40;56.00;;;;;;5029533;28;20035;-51
2020/12/15 17:26:49;;;;;;;8.65;6.93;;;21.40;55.80;;;;;;5028022;28;20452;-46
2020/12/15 17:29:14;;;;;;;14.57;6.72;;;21.40;55.70;;;;;;5029771;28;20049;-46
2020/12/15 17:31:40;;;;;;;9.77;6.57;;;21.50;55.70;;;;;;5031809;28;20088;-54
2020/12/15 17:34:06;;;;;;;12.93;6.85;;;21.50;55.70;;;;;;5025258;28;20117;-46
2020/12/15 17:36:55;;;;;;;9.80;7.00;;;21.50;55.50;;;;;;5029125;28;20041;-49
2020/12/15 17:39:22;;;;;;;10.55;6.75;;;21.60;55.50;;;;;;5027357;28;20120;-47
2020/12/15 17:41:50;;;;;;;9.57;7.20;;;21.60;55.50;;;;;;5032743;28;20630;-48
2020/12/15 17:44:36;;;;;;;7.55;6.47;;;21.60;55.40;;;;;;5024716;28;20133;-48
2020/12/15 17:47:22;;;;;;;8.20;6.93;;;21.60;55.40;;;;;;5026166;28;20050;-48
2020/12/15 17:49:48;;;;;;;10.48;6.95;;;21.60;55.40;;;;;;5030073;28;20493;-49
2020/12/15 17:52:14;;;;;;;13.00;8.82;;;21.70;55.40;;;;;;5042798;28;20041;-51
2020/12/15 17:54:40;;;;;;;14.13;7.43;;;21.70;55.10;;;;;;5028772;28;20460;-52
2020/12/15 17:57:06;;;;;;;10.75;7.72;;;21.60;55.40;;;;;;5026298;28;20044;-47
2020/12/15 17:59:32;;;;;;;11.45;8.68;;;21.60;54.90;;;;;;5029538;28;20481;-52
2020/12/15 18:01:57;;;;;;;10.15;7.00;;;21.60;54.90;;;;;;5027743;28;20156;-49
2020/12/15 18:04:23;;;;;;;8.30;6.30;;;21.50;55.10;;;;;;5024379;28;20037;-47
2020/12/15 18:06:52;;;;;;;10.85;8.27;;;21.50;55.00;;;;;;5027336;28;20076;-48
2020/12/15 18:09:18;;;;;;;9.15;6.05;;;21.50;54.50;;;;;;5025097;28;20500;-47
2020/12/15 18:12:04;;;;;;;7.97;6.18;;;21.50;55.30;;;;;;5014185;28;20173;-46
2020/12/15 18:14:29;;;;;;;7.18;5.57;;;21.50;55.30;;;;;;5027733;28;20393;-48
2020/12/15 18:16:55;;;;;;;8.13;5.30;;;21.40;55.20;;;;;;5027136;28;20033;-48
2020/12/15 18:19:21;;;;;;;10.45;8.18;;;21.40;55.20;;;;;;5028567;28;20041;-46
2020/12/15 18:21:46;;;;;;;8.57;5.90;;;21.40;54.30;;;;;;5027524;28;20032;-50
2020/12/15 18:24:32;;;;;;;7.85;5.63;;;21.40;54.90;;;;;;5029356;28;20059;-51
2020/12/15 18:27:00;;;;;;;8.07;6.35;;;21.40;55.10;;;;;;5024196;28;20038;-49
2020/12/15 18:29:26;;;;;;;7.72;5.82;;;21.40;54.80;;;;;;5027158;28;20099;-48
2020/12/15 18:32:11;;;;;;;10.50;6.13;;;21.40;55.00;;;;;;5011845;28;20045;-46
2020/12/15 18:34:37;;;;;;;9.45;8.18;;;21.40;55.10;;;;;;5023037;28;20755;-48
2020/12/15 18:37:03;;;;;;;10.63;5.60;;;21.40;54.40;;;;;;5024143;28;20037;-48
2020/12/15 18:39:29;;;;;;;14.68;8.43;;;21.40;55.00;;;;;;5027526;28;20033;-48
2020/12/15 18:42:14;;;;;;;10.27;6.75;;;21.40;54.60;;;;;;5028783;28;20135;-46
2020/12/15 18:44:40;;;;;;;10.07;7.45;;;21.40;54.90;;;;;;5025434;28;20457;-48
2020/12/15 18:47:26;;;;;;;8.75;6.78;;;21.40;54.90;;;;;;5008864;28;20037;-49
2020/12/15 18:50:12;;;;;;;12.57;8.73;;;21.40;54.90;;;;;;5022699;28;20068;-49
2020/12/15 18:52:38;;;;;;;7.43;5.72;;;21.40;54.50;;;;;;5023641;28;20486;-48
2020/12/15 18:55:03;;;;;;;15.10;8.05;;;21.40;54.80;;;;;;5018917;28;20048;-48
2020/12/15 18:57:29;;;;;;;18.65;12.18;;;21.30;54.40;;;;;;5026472;28;20037;-49
2020/12/15 18:59:55;;;;;;;10.68;8.45;;;21.30;53.70;;;;;;5021187;28;20456;-47
2020/12/15 19:02:41;;;;;;;8.00;6.07;;;21.20;54.20;;;;;;5029481;28;20394;-46
2020/12/15 19:05:06;;;;;;;14.38;11.68;;;21.10;55.50;;;;;;5024648;28;20030;-49
2020/12/15 19:07:33;;;;;;;14.20;10.75;;;21.10;53.70;;;;;;5022657;28;20438;-50
2020/12/15 19:09:59;;;;;;;16.52;14.32;;;21.00;54.20;;;;;;5023309;28;20045;-49
2020/12/15 19:12:44;;;;;;;18.63;14.00;;;20.90;53.30;;;;;;5022440;28;20038;-51
2020/12/15 19:15:11;;;;;;;13.98;10.48;;;20.70;54.00;;;;;;5020909;28;20037;-48
2020/12/15 19:17:36;;;;;;;11.48;7.85;;;20.50;55.00;;;;;;5023918;28;20099;-51
2020/12/15 19:20:07;;;;;;;13.18;9.55;;;20.50;56.40;;;;;;5024448;28;20488;-46
2020/12/15 19:22:34;;;;;;;11.70;7.72;;;20.50;56.10;;;;;;5036780;28;20038;-46
2020/12/15 19:25:00;;;;;;;11.88;6.32;;;20.60;56.50;;;;;;5020750;28;20034;-48
2020/12/15 19:27:25;;;;;;;13.55;8.15;;;20.60;56.40;;;;;;5022812;28;20105;-49
2020/12/15 19:30:11;;;;;;;15.65;10.98;;;20.60;56.80;;;;;;5020913;28;20041;-45
2020/12/15 19:32:57;;;;;;;8.77;5.05;;;20.70;55.10;;;;;;5022438;28;20059;-48
2020/12/15 19:35:23;;;;;;;9.30;7.43;;;20.80;56.50;;;;;;5026563;28;20128;-51
2020/12/15 19:37:48;;;;;;;7.55;5.93;;;20.80;56.00;;;;;;5015873;28;21727;-46
2020/12/15 19:40:14;;;;;;;10.80;6.70;;;20.90;56.20;;;;;;5023861;28;20041;-46
2020/12/15 19:42:40;;;;;;;10.77;7.53;;;21.00;56.20;;;;;;5024271;28;20053;-45
2020/12/15 19:45:25;;;;;;;12.13;8.90;;;21.00;55.70;;;;;;5022763;28;20054;-53
2020/12/15 19:47:51;;;;;;;13.32;10.15;;;20.90;55.50;;;;;;5024205;28;20038;-50
2020/12/15 19:50:19;;;;;;;8.35;6.70;;;21.00;54.80;;;;;;5023297;28;20042;-46
2020/12/15 19:52:46;;;;;;;13.05;7.22;;;20.90;55.90;;;;;;5023419;28;20511;-47
2020/12/15 19:55:31;;;;;;;9.55;7.30;;;21.00;55.90;;;;;;5022184;28;20049;-45
2020/12/15 19:58:18;;;;;;;11.18;8.07;;;21.00;55.80;;;;;;5023859;28;20524;-51
2020/12/15 20:00:44;;;;;;;9.88;6.97;;;21.00;55.50;;;;;;5023472;28;20494;-46
2020/12/15 20:03:10;;;;;;;11.30;8.85;;;21.00;55.80;;;;;;5021865;28;20111;-50
2020/12/15 20:05:56;;;;;;;10.27;7.05;;;21.10;55.50;;;;;;5008731;28;20060;-52
2020/12/15 20:08:43;;;;;;;9.77;7.45;;;21.00;55.50;;;;;;5010706;28;20788;-48
2020/12/15 20:11:13;;;;;;;15.90;12.63;;;21.00;55.30;;;;;;5024659;28;20116;-48
2020/12/15 20:13:39;;;;;;;17.85;13.45;;;21.00;54.40;;;;;;5023435;28;20183;-48
2020/12/15 20:16:25;;;;;;;19.17;13.55;;;20.90;53.60;;;;;;5021449;28;20037;-48
2020/12/15 20:18:51;;;;;;;13.63;9.38;;;20.80;53.80;;;;;;5020850;28;20485;-48
2020/12/15 20:21:17;;;;;;;18.15;13.73;;;20.70;55.80;;;;;;5020693;28;20068;-46
2020/12/15 20:23:42;;;;;;;18.80;15.25;;;20.60;54.00;;;;;;5021379;28;20069;-51
2020/12/15 20:26:28;;;;;;;15.77;12.10;;;20.50;54.00;;;;;;5020867;28;20123;-48
2020/12/15 20:28:54;;;;;;;18.45;14.07;;;20.40;54.90;;;;;;5019212;28;20041;-50
2020/12/15 20:31:20;;;;;;;10.93;8.20;;;20.40;55.10;;;;;;5042869;28;20124;-47
2020/12/15 20:33:46;;;;;;;22.42;15.02;;;20.40;56.90;;;;;;5020081;28;20045;-45
2020/12/15 20:36:41;;;;;;;17.15;12.32;;;20.30;54.50;;;;;;5012515;28;20053;-47
2020/12/15 20:39:10;;;;;;;20.13;15.30;;;20.20;55.20;;;;;;5040462;28;20480;-48
2020/12/15 20:41:37;;;;;;;15.80;13.20;;;20.10;54.70;;;;;;5024723;28;20119;-48
2020/12/15 20:44:02;;;;;;;17.23;13.68;;;20.00;55.90;;;;;;5025770;28;20945;-48
2020/12/15 20:46:29;;;;;;;19.25;14.98;;;20.00;56.30;;;;;;5023618;28;20062;-51
2020/12/15 20:48:55;;;;;;;20.52;15.20;;;20.00;55.50;;;;;;5023770;28;20037;-52
2020/12/15 20:51:22;;;;;;;11.65;7.40;;;19.90;55.90;;;;;;5024691;28;20500;-47
2020/12/15 20:53:48;;;;;;;9.77;7.10;;;19.80;58.20;;;;;;5024324;28;20038;-48
2020/12/15 20:56:14;;;;;;;9.85;7.20;;;19.90;58.60;;;;;;5025855;28;20674;-45
2020/12/15 20:58:40;;;;;;;9.73;7.70;;;20.00;58.30;;;;;;5025348;28;20472;-54
2020/12/15 21:01:06;;;;;;;10.07;7.57;;;20.10;58.60;;;;;;5024784;28;20030;-51
2020/12/15 21:03:31;;;;;;;13.70;7.50;;;20.20;57.80;;;;;;5025465;28;20116;-47
2020/12/15 21:05:59;;;;;;;9.98;6.72;;;20.30;57.60;;;;;;5026355;28;20061;-48
2020/12/15 21:08:26;;;;;;;9.80;7.25;;;20.40;57.30;;;;;;5026300;28;20378;-54
2020/12/15 21:10:52;;;;;;;11.68;7.57;;;20.40;57.10;;;;;;5026359;28;20118;-46
2020/12/15 21:13:38;;;;;;;12.35;8.35;;;20.50;56.90;;;;;;5026509;28;20519;-51
2020/12/15 21:16:03;;;;;;;9.35;7.15;;;20.50;57.30;;;;;;5024534;28;20144;-46
2020/12/15 21:18:49;;;;;;;9.23;7.15;;;20.60;56.50;;;;;;5025673;28;20049;-51
2020/12/15 21:21:35;;;;;;;10.02;7.22;;;20.60;56.40;;;;;;5023894;28;20084;-46
2020/12/15 21:24:20;;;;;;;7.85;7.05;;;20.60;56.40;;;;;;5024729;28;20049;-54
2020/12/15 21:26:46;;;;;;;9.63;7.45;;;20.60;56.30;;;;;;5026031;28;20037;-46
2020/12/15 21:29:32;;;;;;;9.38;7.35;;;20.70;56.10;;;;;;5024016;28;20072;-48
2020/12/15 21:32:18;;;;;;;9.00;6.97;;;20.70;55.90;;;;;;5025094;28;20041;-47
2020/12/15 21:35:05;;;;;;;8.43;6.88;;;20.70;55.80;;;;;;5024356;28;20049;-51
2020/12/15 21:37:31;;;;;;;10.30;7.53;;;20.80;55.70;;;;;;5024815;28;20041;-49
2020/12/15 21:39:57;;;;;;;8.75;7.05;;;20.80;55.60;;;;;;5040566;28;20051;-48
2020/12/15 21:42:23;;;;;;;9.95;8.30;;;20.80;56.00;;;;;;5024462;28;20382;-54
2020/12/15 21:45:09;;;;;;;12.88;7.95;;;20.80;55.30;;;;;;5023450;28;20449;-49
2020/12/15 21:47:35;;;;;;;9.23;7.60;;;20.80;55.30;;;;;;5031595;28;20050;-48
2020/12/15 21:50:03;;;;;;;9.07;7.38;;;20.80;55.20;;;;;;5023519;28;20033;-49
2020/12/15 21:52:29;;;;;;;8.30;7.30;;;20.80;55.10;;;;;;5021357;28;20046;-46
2020/12/15 21:55:15;;;;;;;10.73;8.20;;;20.80;55.70;;;;;;5022201;28;20053;-54
2020/12/15 21:57:44;;;;;;;8.57;7.20;;;20.90;55.00;;;;;;5025770;28;20042;-49
2020/12/15 22:00:30;;;;;;;11.18;7.82;;;20.90;54.90;;;;;;5024205;28;20474;-47
2020/12/15 22:02:56;;;;;;;9.40;7.30;;;20.90;54.80;;;;;;5025161;28;20041;-50
2020/12/15 22:05:21;;;;;;;8.63;7.78;;;20.90;54.80;;;;;;5024882;28;20076;-47
2020/12/15 22:08:07;;;;;;;8.82;7.30;;;20.90;54.80;;;;;;5021892;28;20049;-48
2020/12/15 22:10:53;;;;;;;12.43;8.07;;;20.90;54.60;;;;;;5019844;28;20110;-51
2020/12/15 22:13:18;;;;;;;7.90;7.15;;;20.90;54.50;;;;;;5025125;28;20401;-52
2020/12/15 22:15:44;;;;;;;8.57;7.75;;;20.90;54.60;;;;;;5020619;28;20087;-49
2020/12/15 22:18:10;;;;;;;14.02;8.40;;;20.90;54.50;;;;;;5023233;28;20033;-48
2020/12/15 22:20:36;;;;;;;12.82;8.07;;;20.90;54.90;;;;;;5026047;28;20045;-55
2020/12/15 22:23:21;;;;;;;12.40;8.48;;;20.80;55.30;;;;;;5023499;28;20046;-54
2020/12/15 22:25:47;;;;;;;14.63;8.80;;;20.90;55.00;;;;;;5021563;28;20033;-54
2020/12/15 22:28:13;;;;;;;23.40;14.50;;;20.90;55.60;;;;;;5024111;28;20098;-52
2020/12/15 22:30:39;;;;;;;17.63;15.07;;;20.80;52.90;;;;;;5020170;28;20033;-51
2020/12/15 22:33:24;;;;;;;20.83;14.02;;;20.60;53.10;;;;;;5017958;28;20085;-51
2020/12/15 22:35:50;;;;;;;19.52;14.40;;;20.50;54.10;;;;;;5020255;28;20162;-50
2020/12/15 22:38:36;;;;;;;20.05;13.45;;;20.30;54.70;;;;;;5021373;28;20057;-49
2020/12/15 22:41:21;;;;;;;17.38;12.80;;;20.20;55.10;;;;;;5021197;28;20084;-50
2020/12/15 22:43:47;;;;;;;9.13;7.63;;;20.20;56.50;;;;;;5020814;28;21672;-48
2020/12/15 22:46:16;;;;;;;14.75;10.98;;;20.20;57.10;;;;;;5022307;28;20512;-51
2020/12/15 22:48:43;;;;;;;23.63;11.38;;;20.30;56.20;;;;;;5023478;28;20429;-54
2020/12/15 22:51:09;;;;;;;18.77;13.48;;;20.20;56.50;;;;;;5021507;28;20041;-53
2020/12/15 22:53:35;;;;;;;19.42;10.63;;;20.20;56.50;;;;;;5021719;28;20053;-48
2020/12/15 22:56:00;;;;;;;12.80;8.38;;;20.10;57.50;;;;;;5022709;28;20131;-51
2020/12/15 22:58:26;;;;;;;16.85;9.57;;;20.10;58.00;;;;;;5021561;28;20046;-50
2020/12/15 23:01:12;;;;;;;19.33;14.25;;;20.10;58.20;;;;;;5020057;28;20045;-53
2020/12/15 23:03:37;;;;;;;18.08;11.48;;;20.10;56.30;;;;;;5022187;28;20424;-54
2020/12/15 23:06:23;;;;;;;14.07;10.48;;;20.00;57.20;;;;;;5021994;28;20099;-53
2020/12/15 23:08:49;;;;;;;23.38;10.50;;;20.00;57.60;;;;;;5022016;28;20404;-56
2020/12/15 23:11:34;;;;;;;19.83;13.93;;;20.00;57.90;;;;;;5023279;28;20057;-55
2020/12/15 23:14:01;;;;;;;15.45;12.52;;;20.00;56.80;;;;;;5023457;28;20041;-55
2020/12/15 23:16:26;;;;;;;21.23;14.88;;;19.90;56.90;;;;;;5024940;28;20044;-50
2020/12/15 23:18:52;;;;;;;27.92;15.93;;;19.90;56.50;;;;;;5023082;28;20034;-54
2020/12/15 23:21:18;;;;;;;22.58;15.32;;;19.80;57.20;;;;;;5035968;28;20034;-49
2020/12/15 23:24:04;;;;;;;18.05;10.93;;;19.70;57.20;;;;;;5022171;28;20433;-52
2020/12/15 23:26:50;;;;;;;22.00;14.15;;;19.70;59.10;;;;;;5021381;28;20045;-49
2020/12/15 23:29:37;;;;;;;24.45;18.20;;;19.80;59.00;;;;;;5016477;28;20041;-54
2020/12/15 23:32:03;;;;;;;21.88;12.25;;;19.70;56.20;;;;;;5018635;28;20044;-57
2020/12/15 23:34:48;;;;;;;16.88;11.85;;;19.60;58.30;;;;;;5004993;28;20029;-56
2020/12/15 23:37:34;;;;;;;16.55;13.07;;;19.70;59.20;;;;;;5022850;28;20128;-53
2020/12/15 23:40:20;;;;;;;19.23;13.75;;;19.70;58.50;;;;;;5018467;28;20090;-57
2020/12/15 23:42:46;;;;;;;17.85;12.93;;;19.60;57.90;;;;;;5025609;28;20037;-57
2020/12/15 23:45:12;;;;;;;18.25;13.30;;;19.60;59.40;;;;;;5023943;28;20163;-58
2020/12/15 23:47:58;;;;;;;16.25;9.02;;;19.60;58.30;;;;;;5020903;28;20124;-53
2020/12/15 23:50:24;;;;;;;16.95;13.93;;;19.60;59.70;;;;;;5023857;28;20056;-58
2020/12/15 23:52:50;;;;;;;18.67;14.45;;;19.60;58.40;;;;;;5028203;28;20060;-58
2020/12/15 23:55:16;;;;;;;17.42;10.18;;;19.50;58.80;;;;;;5025828;28;20044;-54
2020/12/15 23:58:02;;;;;;;21.63;15.30;;;19.50;60.00;;;;;;5019511;28;20124;-55
